Time;durP1;ratioP1;P1;durP2;ratioP2;P2;SDS_P1;SDS_P2;PMS_P1;PMS_P2;Temp;Humidity;BMP_temperature;BMP_pressure;BME280_temperature;BME280_humidity;BME280_pressure;Samples;Min_cycle;Max_cycle;Signal;HPM_P1;HPM_P2
2023/11/13 00:01:33;;;;;;;6.45;1.20;;;11.20;99.90;;;;;;5016260;28;20038;-82
2023/11/13 00:04:00;;;;;;;7.10;1.35;;;11.30;99.90;;;;;;5015092;28;20130;-82
2023/11/13 00:06:27;;;;;;;9.18;1.60;;;11.30;99.90;;;;;;5015274;28;20058;-81
2023/11/13 00:08:53;;;;;;;6.03;1.10;;;11.30;99.90;;;;;;5014712;28;20045;-81
2023/11/13 00:11:20;;;;;;;11.35;2.40;;;11.30;99.90;;;;;;5012498;28;20137;-80
2023/11/13 00:13:47;;;;;;;10.00;1.85;;;11.40;99.90;;;;;;5014810;28;20112;-80
2023/11/13 00:16:14;;;;;;;7.75;1.85;;;11.40;99.90;;;;;;5014728;28;20078;-82
2023/11/13 00:18:42;;;;;;;9.30;2.00;;;11.40;99.90;;;;;;5014936;28;20097;-83
2023/11/13 00:21:09;;;;;;;11.27;2.67;;;11.40;99.90;;;;;;5017291;28;20042;-82
2023/11/13 00:23:37;;;;;;;15.55;2.50;;;11.50;99.90;;;;;;5017626;28;20050;-79
2023/11/13 00:26:04;;;;;;;7.90;2.10;;;11.50;99.90;;;;;;5017144;28;20619;-82
2023/11/13 00:28:31;;;;;;;15.05;2.38;;;11.50;99.90;;;;;;5016271;28;20112;-80
2023/11/13 00:30:58;;;;;;;14.43;2.85;;;11.50;99.90;;;;;;5016052;28;20129;-82
2023/11/13 00:33:25;;;;;;;12.98;2.38;;;11.60;99.90;;;;;;5020107;28;20077;-81
2023/11/13 00:35:52;;;;;;;9.45;2.55;;;11.60;99.90;;;;;;5019327;28;20049;-82
2023/11/13 00:38:19;;;;;;;17.02;2.90;;;11.60;99.90;;;;;;5021147;28;20498;-80
2023/11/13 00:40:46;;;;;;;13.93;2.40;;;11.60;99.90;;;;;;5021122;28;20042;-81
2023/11/13 00:43:14;;;;;;;13.70;2.72;;;11.60;99.90;;;;;;5020234;28;20050;-81
2023/11/13 00:45:41;;;;;;;11.13;3.28;;;11.60;99.90;;;;;;5019884;28;20056;-80
2023/11/13 00:48:08;;;;;;;15.63;3.20;;;11.60;99.90;;;;;;5034827;28;20053;-82
2023/11/13 00:50:34;;;;;;;11.00;2.80;;;11.70;99.90;;;;;;5019714;28;20489;-82
2023/11/13 00:53:01;;;;;;;12.63;2.72;;;11.70;99.90;;;;;;5019797;28;20042;-82
2023/11/13 00:55:28;;;;;;;20.05;3.38;;;11.70;99.90;;;;;;5019350;28;20054;-82
2023/11/13 00:57:55;;;;;;;14.57;3.08;;;11.70;99.90;;;;;;5019879;28;20069;-83
2023/11/13 01:00:22;;;;;;;14.07;2.47;;;11.70;99.90;;;;;;5019137;28;20054;-80
2023/11/13 01:02:49;;;;;;;18.63;3.15;;;11.70;99.90;;;;;;5018361;28;20100;-83
2023/11/13 01:05:16;;;;;;;16.38;3.33;;;11.70;99.90;;;;;;5019339;28;20410;-82
2023/11/13 01:07:42;;;;;;;23.10;3.95;;;11.70;99.90;;;;;;5025519;28;20046;-82
2023/11/13 01:10:09;;;;;;;16.13;3.15;;;11.70;99.90;;;;;;5018018;28;20046;-83
2023/11/13 01:12:37;;;;;;;18.23;2.97;;;11.70;99.90;;;;;;5019286;28;20609;-81
2023/11/13 01:15:06;;;;;;;19.15;3.08;;;11.70;99.90;;;;;;5018374;28;20070;-82
2023/11/13 01:17:34;;;;;;;15.30;3.33;;;11.70;99.90;;;;;;5017945;28;20502;-82
2023/11/13 01:20:01;;;;;;;14.15;2.92;;;11.70;99.90;;;;;;5014733;28;20076;-82
2023/11/13 01:22:28;;;;;;;15.63;2.80;;;11.70;99.90;;;;;;5018651;28;20054;-80
2023/11/13 01:24:54;;;;;;;14.43;2.90;;;11.70;99.90;;;;;;5018126;28;20502;-82
2023/11/13 01:27:21;;;;;;;13.68;2.90;;;11.70;99.90;;;;;;5018768;28;20090;-82
2023/11/13 01:29:48;;;;;;;15.82;3.25;;;11.70;99.90;;;;;;5018648;28;20425;-82
2023/11/13 01:32:16;;;;;;;16.95;2.80;;;11.70;99.90;;;;;;5033513;28;20124;-83
2023/11/13 01:34:42;;;;;;;16.23;4.32;;;11.80;99.90;;;;;;5015132;28;20493;-83
2023/11/13 01:37:09;;;;;;;17.13;3.03;;;11.80;99.90;;;;;;5020683;28;20045;-82
2023/11/13 01:39:36;;;;;;;13.00;2.25;;;11.80;99.90;;;;;;5019162;28;20132;-81
2023/11/13 01:42:03;;;;;;;12.13;3.28;;;11.80;99.90;;;;;;5018768;28;20049;-82
2023/11/13 01:44:30;;;;;;;7.88;3.20;;;11.80;99.90;;;;;;5018311;28;20050;-82
2023/11/13 01:46:58;;;;;;;16.00;2.60;;;11.80;99.90;;;;;;5018571;28;20117;-81
2023/11/13 01:49:25;;;;;;;13.90;3.00;;;11.80;99.90;;;;;;5017306;28;20115;-82
2023/11/13 01:51:52;;;;;;;17.48;3.55;;;11.80;99.90;;;;;;5017648;28;20060;-82
2023/11/13 01:54:21;;;;;;;14.68;3.20;;;11.90;99.90;;;;;;5018016;28;20057;-82
2023/11/13 01:56:49;;;;;;;19.08;3.00;;;11.90;99.90;;;;;;5014616;28;20045;-81
2023/11/13 01:59:17;;;;;;;17.15;4.10;;;11.90;99.90;;;;;;5017346;28;20045;-81
2023/11/13 02:01:44;;;;;;;17.80;4.03;;;11.90;99.90;;;;;;5019053;28;20077;-82
2023/11/13 02:04:10;;;;;;;21.45;3.47;;;11.90;99.90;;;;;;5012856;28;20120;-81
2023/11/13 02:06:37;;;;;;;21.45;3.08;;;11.90;99.90;;;;;;5013635;28;20089;-81
2023/11/13 02:09:06;;;;;;;17.85;3.13;;;12.00;99.90;;;;;;5013629;28;20042;-82
2023/11/13 02:11:33;;;;;;;19.63;3.53;;;12.00;99.90;;;;;;5013984;28;20469;-81
2023/11/13 02:14:00;;;;;;;18.90;3.28;;;12.00;99.90;;;;;;5013440;28;20141;-81
2023/11/13 02:16:27;;;;;;;16.77;3.20;;;12.00;99.90;;;;;;5013902;28;20081;-80
2023/11/13 02:18:54;;;;;;;13.65;2.95;;;12.00;99.90;;;;;;5013155;28;20038;-82
2023/11/13 02:21:21;;;;;;;17.95;3.55;;;12.00;99.90;;;;;;5013487;28;20050;-82
2023/11/13 02:23:49;;;;;;;21.25;3.88;;;12.00;99.90;;;;;;5015881;28;20045;-82
2023/11/13 02:26:16;;;;;;;24.42;3.92;;;12.00;99.90;;;;;;5015186;28;20050;-82
2023/11/13 02:28:44;;;;;;;16.80;3.60;;;12.00;99.90;;;;;;5014708;28;20092;-82
2023/11/13 02:31:11;;;;;;;15.13;2.55;;;12.00;99.90;;;;;;5014934;28;20494;-83
2023/11/13 02:33:38;;;;;;;22.10;3.78;;;12.10;99.90;;;;;;5014858;28;20080;-81
2023/11/13 02:36:05;;;;;;;19.08;3.65;;;12.10;99.90;;;;;;5011618;28;20066;-82
2023/11/13 02:38:31;;;;;;;18.90;3.28;;;12.10;99.90;;;;;;5018159;28;20104;-82
2023/11/13 02:41:00;;;;;;;15.05;2.95;;;12.10;99.90;;;;;;5014255;28;20046;-83
2023/11/13 02:43:26;;;;;;;15.95;3.60;;;12.10;99.90;;;;;;5022063;28;20062;-81
2023/11/13 02:45:53;;;;;;;16.05;3.70;;;12.10;99.90;;;;;;5013731;28;20045;-82
2023/11/13 02:48:20;;;;;;;19.95;2.83;;;12.10;99.90;;;;;;5028776;28;20081;-82
2023/11/13 02:50:47;;;;;;;15.85;3.80;;;12.20;99.90;;;;;;5012208;28;20383;-81
2023/11/13 02:53:17;;;;;;;14.48;2.90;;;12.10;99.90;;;;;;5013377;28;20060;-81
2023/11/13 02:55:44;;;;;;;15.20;3.40;;;12.20;99.90;;;;;;5020304;28;20049;-82
2023/11/13 02:58:11;;;;;;;16.60;3.95;;;12.20;99.90;;;;;;5013282;28;20485;-81
2023/11/13 03:00:38;;;;;;;15.00;3.63;;;12.20;99.90;;;;;;5011565;28;20046;-81
2023/11/13 03:03:04;;;;;;;20.55;4.00;;;12.20;99.90;;;;;;5027840;28;20042;-82
2023/11/13 03:05:31;;;;;;;18.85;3.03;;;12.20;99.90;;;;;;5012921;28;20104;-82
2023/11/13 03:07:58;;;;;;;22.92;3.72;;;12.20;99.90;;;;;;5013181;28;20564;-82
2023/11/13 03:10:25;;;;;;;17.40;3.50;;;12.20;99.90;;;;;;5007299;28;20050;-82
2023/11/13 03:12:52;;;;;;;19.83;4.50;;;12.20;99.90;;;;;;5012787;28;20052;-81
2023/11/13 03:15:19;;;;;;;18.83;2.83;;;12.20;99.90;;;;;;5012384;28;20100;-80
2023/11/13 03:17:46;;;;;;;21.88;3.72;;;12.20;99.90;;;;;;5012590;28;20042;-81
2023/11/13 03:20:13;;;;;;;18.23;3.33;;;12.20;99.90;;;;;;5012832;28;20115;-81
2023/11/13 03:22:40;;;;;;;20.58;3.08;;;12.20;99.90;;;;;;5012233;28;20494;-82
2023/11/13 03:25:08;;;;;;;15.35;3.40;;;12.20;99.90;;;;;;5010186;28;20045;-80
2023/11/13 03:27:35;;;;;;;18.15;3.80;;;12.20;99.90;;;;;;5012113;28;20053;-82
2023/11/13 03:30:03;;;;;;;11.65;2.92;;;12.20;99.90;;;;;;5012637;28;20046;-81
2023/11/13 03:32:30;;;;;;;10.63;2.67;;;12.20;99.90;;;;;;5022893;28;20046;-82
2023/11/13 03:34:57;;;;;;;13.45;2.40;;;12.20;99.90;;;;;;5010632;28;20544;-81
2023/11/13 03:37:24;;;;;;;10.63;3.13;;;12.20;99.90;;;;;;5013098;28;20088;-82
2023/11/13 03:39:51;;;;;;;14.13;3.85;;;12.20;99.90;;;;;;5009600;28;20410;-82
2023/11/13 03:42:18;;;;;;;13.98;2.40;;;12.20;99.90;;;;;;5012755;28;20390;-82
2023/11/13 03:44:45;;;;;;;12.73;3.05;;;12.20;99.90;;;;;;5012186;28;20128;-81
2023/11/13 03:47:12;;;;;;;11.77;2.20;;;12.20;99.90;;;;;;5012806;28;20049;-82
2023/11/13 03:49:39;;;;;;;10.27;2.35;;;12.20;99.90;;;;;;5012614;28;20054;-81
2023/11/13 03:52:06;;;;;;;14.88;3.28;;;12.20;99.90;;;;;;5028773;28;20046;-81
2023/11/13 03:54:33;;;;;;;8.88;2.17;;;12.20;99.90;;;;;;5013680;28;20128;-80
2023/11/13 03:57:00;;;;;;;9.25;2.17;;;12.20;99.90;;;;;;5014182;28;20489;-82
2023/11/13 03:59:27;;;;;;;10.85;2.63;;;12.10;99.90;;;;;;5013835;28;20046;-80
2023/11/13 04:01:53;;;;;;;9.77;2.53;;;12.10;99.90;;;;;;5013399;28;20069;-82
2023/11/13 04:04:20;;;;;;;14.60;2.20;;;12.10;99.90;;;;;;5012553;28;20432;-81
2023/11/13 04:06:49;;;;;;;13.15;2.45;;;12.10;99.90;;;;;;5014458;28;20050;-81
2023/11/13 04:09:16;;;;;;;11.18;2.17;;;12.10;99.90;;;;;;5012593;28;20053;-81
2023/11/13 04:11:44;;;;;;;9.20;2.25;;;12.00;99.90;;;;;;5015988;28;20050;-80
2023/11/13 04:14:11;;;;;;;11.80;2.60;;;12.00;99.90;;;;;;5016183;28;20042;-80
2023/11/13 04:16:38;;;;;;;14.30;2.20;;;12.00;99.90;;;;;;5007605;28;20042;-81
2023/11/13 04:19:08;;;;;;;12.27;2.10;;;12.00;99.90;;;;;;5013455;28;20038;-81
2023/11/13 04:21:36;;;;;;;8.00;2.08;;;12.00;99.90;;;;;;5016452;28;20056;-80
2023/11/13 04:24:03;;;;;;;14.32;3.40;;;12.00;99.90;;;;;;5015650;28;20104;-82
2023/11/13 04:26:30;;;;;;;10.98;1.95;;;12.00;99.90;;;;;;5015823;28;20054;-82
2023/11/13 04:28:56;;;;;;;14.73;2.80;;;11.90;99.90;;;;;;5015616;28;20073;-82
2023/11/13 04:31:23;;;;;;;12.18;2.38;;;11.90;99.90;;;;;;5020208;28;20097;-83
2023/11/13 04:33:50;;;;;;;4.40;2.15;;;11.90;99.90;;;;;;5020938;28;20073;-81
2023/11/13 04:36:17;;;;;;;5.80;1.65;;;11.90;99.90;;;;;;5021035;28;20050;-81
2023/11/13 04:38:44;;;;;;;8.38;1.88;;;11.90;99.90;;;;;;5021597;28;20099;-82
2023/11/13 04:41:15;;;;;;;5.38;1.60;;;11.90;99.90;;;;;;5015613;28;20100;-82
2023/11/13 04:43:43;;;;;;;8.80;1.55;;;11.90;99.90;;;;;;5013843;28;20073;-81
2023/11/13 04:46:11;;;;;;;7.97;2.33;;;11.80;99.90;;;;;;5030204;28;20133;-81
2023/11/13 04:48:41;;;;;;;8.07;2.03;;;11.80;99.90;;;;;;5017549;28;20053;-81
2023/11/13 04:51:08;;;;;;;8.18;1.83;;;11.80;99.90;;;;;;5020744;28;20476;-82
2023/11/13 04:53:34;;;;;;;7.90;1.38;;;11.80;99.90;;;;;;5035418;28;20050;-81
2023/11/13 04:56:01;;;;;;;6.78;1.63;;;11.80;99.90;;;;;;5020242;28;20111;-82
2023/11/13 04:58:28;;;;;;;8.27;1.42;;;11.80;99.90;;;;;;5021561;28;20050;-82
2023/11/13 05:00:56;;;;;;;7.18;1.33;;;11.80;99.90;;;;;;5020361;28;20049;-81
2023/11/13 05:03:23;;;;;;;5.45;1.30;;;11.80;99.90;;;;;;5019503;28;20052;-81
2023/11/13 05:05:49;;;;;;;6.93;1.50;;;11.80;99.90;;;;;;5017395;28;20056;-82
2023/11/13 05:08:16;;;;;;;5.75;1.38;;;11.80;99.90;;;;;;5016812;28;20050;-82
2023/11/13 05:10:43;;;;;;;5.50;1.63;;;11.80;99.90;;;;;;5031410;28;20053;-82
2023/11/13 05:13:10;;;;;;;9.88;1.48;;;11.80;99.90;;;;;;5012633;28;20096;-82
2023/11/13 05:15:37;;;;;;;8.10;1.50;;;11.70;99.90;;;;;;5014866;28;20536;-81
2023/11/13 05:18:06;;;;;;;5.32;1.23;;;11.70;99.90;;;;;;5013700;28;20387;-80
2023/11/13 05:20:39;;;;;;;2.97;1.00;;;11.70;99.90;;;;;;5014756;28;20096;-82
2023/11/13 05:23:06;;;;;;;6.05;1.35;;;11.70;99.90;;;;;;5014614;28;20042;-81
2023/11/13 05:25:33;;;;;;;5.57;1.20;;;11.70;99.90;;;;;;5014897;28;20121;-82
2023/11/13 05:28:00;;;;;;;2.88;1.02;;;11.80;99.90;;;;;;5030694;28;20045;-81
2023/11/13 05:30:27;;;;;;;5.47;1.58;;;11.80;99.90;;;;;;5021156;28;20050;-83
2023/11/13 05:32:53;;;;;;;4.75;1.50;;;11.80;99.90;;;;;;5015493;28;20092;-82
2023/11/13 05:35:20;;;;;;;4.70;0.98;;;11.80;99.90;;;;;;5014186;28;20555;-80
2023/11/13 05:37:47;;;;;;;7.20;0.90;;;11.80;99.90;;;;;;5014542;28;20041;-82
2023/11/13 05:40:16;;;;;;;2.35;0.98;;;11.80;99.90;;;;;;5010878;28;20046;-81
2023/11/13 05:42:43;;;;;;;4.25;1.13;;;11.80;99.90;;;;;;5015894;28;20050;-81
2023/11/13 05:45:14;;;;;;;3.05;0.75;;;11.80;99.90;;;;;;5016433;28;20123;-82
2023/11/13 05:47:41;;;;;;;;;;;11.80;99.90;;;;;;5014970;28;20049;-82
2023/11/13 05:50:08;;;;;;;5.45;1.02;;;11.70;99.90;;;;;;5014501;28;19921;-81
2023/11/13 05:52:35;;;;;;;1.95;0.60;;;11.70;99.90;;;;;;5014587;28;20093;-82
2023/11/13 05:55:02;;;;;;;3.92;0.70;;;11.70;99.90;;;;;;5015813;28;20042;-79
2023/11/13 05:57:29;;;;;;;2.03;0.70;;;11.70;99.90;;;;;;5029342;28;20644;-79
2023/11/13 05:59:56;;;;;;;2.58;0.70;;;11.70;99.90;;;;;;5013683;28;20086;-79
2023/11/13 06:02:23;;;;;;;4.50;1.02;;;11.70;99.90;;;;;;5015594;28;20050;-80
2023/11/13 06:04:50;;;;;;;4.38;0.90;;;11.70;99.90;;;;;;5014460;28;20053;-82
2023/11/13 06:07:17;;;;;;;5.22;0.63;;;11.70;99.90;;;;;;5014429;28;20056;-81
2023/11/13 06:09:44;;;;;;;1.90;0.60;;;11.70;99.90;;;;;;5015636;28;20517;-82
2023/11/13 06:12:11;;;;;;;3.03;0.77;;;11.80;99.90;;;;;;5015770;28;20469;-81
2023/11/13 06:14:40;;;;;;;2.78;0.70;;;11.80;99.90;;;;;;5013424;28;20054;-80
2023/11/13 06:17:08;;;;;;;4.23;1.13;;;11.80;99.90;;;;;;5016561;28;20119;-81
2023/11/13 06:19:35;;;;;;;2.03;0.70;;;11.80;99.90;;;;;;5014646;28;20335;-81
2023/11/13 06:22:02;;;;;;;1.40;0.70;;;11.80;99.90;;;;;;5015096;28;20132;-80
2023/11/13 06:24:29;;;;;;;3.03;0.90;;;11.80;99.90;;;;;;5016520;28;20512;-82
2023/11/13 06:26:56;;;;;;;3.20;0.90;;;11.80;99.90;;;;;;5015984;28;20112;-83
2023/11/13 06:29:25;;;;;;;1.45;0.80;;;11.90;99.90;;;;;;5018124;28;20046;-80
2023/11/13 06:31:52;;;;;;;1.30;0.60;;;11.90;99.90;;;;;;5015503;28;20047;-82
2023/11/13 06:34:20;;;;;;;1.98;0.70;;;11.90;99.90;;;;;;5010747;28;20293;-81
2023/11/13 06:36:46;;;;;;;2.00;0.70;;;11.90;99.90;;;;;;5016266;28;20050;-82
2023/11/13 06:39:15;;;;;;;1.75;0.80;;;11.90;99.90;;;;;;5016220;28;20049;-82
2023/11/13 06:41:43;;;;;;;1.15;0.70;;;12.00;99.90;;;;;;5011638;28;20045;-82
2023/11/13 06:44:10;;;;;;;2.95;0.68;;;12.00;99.90;;;;;;5011755;28;20050;-81
2023/11/13 06:46:37;;;;;;;3.35;1.00;;;12.00;99.90;;;;;;5013928;28;20046;-81
2023/11/13 06:49:04;;;;;;;2.05;0.60;;;12.10;99.90;;;;;;5021912;28;20054;-81
2023/11/13 06:51:31;;;;;;;1.95;0.60;;;12.10;99.90;;;;;;5017219;28;20399;-81
2023/11/13 06:53:58;;;;;;;4.78;1.30;;;12.10;99.90;;;;;;5018639;28;20057;-82
2023/11/13 06:56:25;;;;;;;5.75;0.98;;;12.10;99.90;;;;;;5014090;28;20046;-82
2023/11/13 06:58:51;;;;;;;3.13;0.80;;;12.10;99.90;;;;;;5014191;28;20045;-82
2023/11/13 07:01:20;;;;;;;1.90;0.70;;;12.20;99.90;;;;;;5013989;28;20478;-82
2023/11/13 07:03:47;;;;;;;3.85;0.73;;;12.20;99.90;;;;;;5016033;28;20042;-83
2023/11/13 07:06:14;;;;;;;3.95;1.27;;;12.20;99.90;;;;;;5018396;28;20069;-82
2023/11/13 07:08:41;;;;;;;1.30;0.88;;;12.20;99.90;;;;;;5025132;28;20057;-82
2023/11/13 07:11:10;;;;;;;2.97;1.00;;;12.20;99.90;;;;;;5020622;28;20050;-81
2023/11/13 07:13:41;;;;;;;2.53;1.07;;;12.30;99.90;;;;;;5010142;28;20111;-82
2023/11/13 07:16:09;;;;;;;2.55;0.90;;;12.30;99.90;;;;;;5013760;28;20042;-81
2023/11/13 07:18:36;;;;;;;3.00;0.90;;;12.30;99.90;;;;;;5013586;28;20049;-81
2023/11/13 07:21:03;;;;;;;5.03;0.93;;;12.30;99.90;;;;;;5013708;28;20049;-83
2023/11/13 07:23:30;;;;;;;5.53;1.17;;;12.30;99.90;;;;;;5013920;28;20085;-82
2023/11/13 07:25:57;;;;;;;6.18;2.15;;;12.40;99.90;;;;;;5018246;28;20509;-83
2023/11/13 07:28:24;;;;;;;4.70;2.03;;;12.40;99.90;;;;;;5029819;28;20050;-80
2023/11/13 07:30:51;;;;;;;5.00;1.60;;;12.50;99.90;;;;;;5013746;28;20061;-80
2023/11/13 07:33:18;;;;;;;5.90;0.98;;;12.50;99.90;;;;;;5013300;28;20050;-82
2023/11/13 07:35:45;;;;;;;5.15;1.23;;;12.50;99.90;;;;;;5013216;28;20042;-83
2023/11/13 07:38:11;;;;;;;4.63;1.17;;;12.50;99.90;;;;;;5003729;28;20046;-82
2023/11/13 07:40:38;;;;;;;3.80;0.82;;;12.60;99.90;;;;;;5011558;28;20049;-82
2023/11/13 07:43:08;;;;;;;2.97;0.88;;;12.60;99.90;;;;;;5015686;28;20050;-81
2023/11/13 07:45:38;;;;;;;5.60;1.00;;;12.60;99.90;;;;;;5032958;28;20050;-81
2023/11/13 07:48:05;;;;;;;7.50;1.17;;;12.60;99.90;;;;;;5017769;28;20050;-81
2023/11/13 07:50:32;;;;;;;5.57;1.20;;;12.60;99.90;;;;;;5017917;28;20523;-82
2023/11/13 07:53:19;;;;;;;3.83;1.30;;;12.70;99.90;;;;;;5024016;28;20420;-82
2023/11/13 07:55:46;;;;;;;8.35;1.10;;;12.70;99.90;;;;;;5031263;28;20053;-83
2023/11/13 07:58:13;;;;;;;9.32;1.65;;;12.70;99.90;;;;;;5031856;28;20137;-83
2023/11/13 08:00:40;;;;;;;3.80;1.50;;;12.70;99.90;;;;;;5025475;28;20411;-83
2023/11/13 08:03:07;;;;;;;5.75;1.15;;;12.70;99.90;;;;;;5016406;28;20480;-81
2023/11/13 08:05:34;;;;;;;7.18;1.45;;;12.80;99.90;;;;;;5032067;28;20056;-80
2023/11/13 08:08:02;;;;;;;3.20;1.40;;;12.80;99.90;;;;;;5016363;28;20099;-82
2023/11/13 08:10:30;;;;;;;7.75;1.60;;;12.80;99.90;;;;;;5017229;28;20118;-81
2023/11/13 08:12:56;;;;;;;4.38;1.25;;;12.80;99.90;;;;;;5017741;28;20057;-82
2023/11/13 08:15:25;;;;;;;4.65;1.08;;;12.90;99.90;;;;;;5016147;28;20132;-81
2023/11/13 08:17:52;;;;;;;8.27;1.52;;;12.90;99.90;;;;;;5022389;28;20050;-82
2023/11/13 08:20:25;;;;;;;8.18;1.75;;;12.90;99.90;;;;;;5021557;28;20045;-82
2023/11/13 08:22:57;;;;;;;11.25;2.40;;;12.90;99.90;;;;;;5018449;28;20468;-83
2023/11/13 08:25:25;;;;;;;5.82;1.33;;;12.90;99.90;;;;;;5024795;28;20114;-82
2023/11/13 08:27:52;;;;;;;6.28;1.30;;;13.00;99.90;;;;;;5018188;28;20525;-81
2023/11/13 08:30:22;;;;;;;8.70;1.55;;;13.00;99.90;;;;;;5012378;28;20057;-82
2023/11/13 08:32:52;;;;;;;9.10;1.48;;;13.00;99.90;;;;;;5016951;28;20081;-83
2023/11/13 08:35:19;;;;;;;7.07;2.33;;;13.00;99.90;;;;;;5013165;28;20049;-83
2023/11/13 08:37:47;;;;;;;5.95;1.27;;;13.10;99.90;;;;;;5013967;28;20054;-82
2023/11/13 08:40:25;;;;;;;8.63;1.75;;;13.10;99.90;;;;;;5013656;28;20054;-82
2023/11/13 08:42:53;;;;;;;7.28;1.77;;;13.10;99.90;;;;;;5017220;28;20046;-82
2023/11/13 08:45:19;;;;;;;5.72;1.77;;;13.20;99.90;;;;;;5016923;28;20111;-82
2023/11/13 08:47:48;;;;;;;5.68;1.65;;;13.20;99.90;;;;;;5016984;28;20050;-83
2023/11/13 08:50:16;;;;;;;8.40;1.92;;;13.20;99.90;;;;;;5007809;28;20488;-82
2023/11/13 08:52:45;;;;;;;8.48;2.28;;;13.30;99.90;;;;;;5017434;28;20045;-81
2023/11/13 08:55:17;;;;;;;8.35;1.80;;;13.30;99.90;;;;;;5016573;28;20042;-83
2023/11/13 08:57:45;;;;;;;7.00;1.80;;;13.40;99.90;;;;;;5017120;28;20069;-82
2023/11/13 09:00:24;;;;;;;8.63;2.00;;;13.40;99.90;;;;;;5014833;28;20054;-82
2023/11/13 09:02:56;;;;;;;7.07;2.42;;;13.50;99.90;;;;;;5017426;28;20050;-83
2023/11/13 09:05:25;;;;;;;7.05;1.90;;;13.50;99.90;;;;;;5011978;28;20042;-82
2023/11/13 09:07:53;;;;;;;9.38;2.00;;;13.50;99.90;;;;;;5016371;28;20125;-83
2023/11/13 09:10:26;;;;;;;9.50;2.05;;;13.60;99.90;;;;;;5016987;28;20049;-80
2023/11/13 09:13:00;;;;;;;7.32;1.73;;;13.70;99.90;;;;;;5016653;28;20081;-81
2023/11/13 09:15:30;;;;;;;8.45;1.85;;;13.70;99.90;;;;;;5015657;28;20046;-82
2023/11/13 09:18:01;;;;;;;12.05;2.45;;;13.70;99.90;;;;;;5012949;28;20042;-82
2023/11/13 09:20:29;;;;;;;4.28;1.33;;;13.80;99.90;;;;;;5014668;28;20482;-80
2023/11/13 09:22:56;;;;;;;4.78;1.48;;;13.90;99.90;;;;;;5024521;28;20488;-82
2023/11/13 09:25:28;;;;;;;8.60;1.73;;;13.90;99.90;;;;;;5016585;28;20129;-82
2023/11/13 09:27:59;;;;;;;6.80;1.50;;;14.00;99.90;;;;;;5019304;28;20072;-83
2023/11/13 09:30:26;;;;;;;7.18;1.52;;;14.00;99.90;;;;;;5020544;28;20038;-82
2023/11/13 09:32:55;;;;;;;11.43;1.75;;;14.10;99.90;;;;;;5017320;28;20425;-83
2023/11/13 09:35:23;;;;;;;6.35;1.55;;;14.10;99.90;;;;;;5019889;28;20572;-83
2023/11/13 09:37:55;;;;;;;8.38;1.48;;;14.10;99.90;;;;;;5020449;28;20037;-83
2023/11/13 09:40:25;;;;;;;9.68;1.83;;;14.10;99.90;;;;;;5023322;28;20045;-82
2023/11/13 09:42:52;;;;;;;9.55;1.80;;;14.20;99.90;;;;;;5019257;28;20080;-81
2023/11/13 09:45:20;;;;;;;11.45;2.20;;;14.20;99.90;;;;;;5018372;28;20081;-80
2023/11/13 09:47:49;;;;;;;11.43;2.15;;;14.20;99.90;;;;;;5016825;28;20564;-82
2023/11/13 09:50:17;;;;;;;7.95;2.45;;;14.20;99.90;;;;;;5017681;28;20046;-83
2023/11/13 09:52:50;;;;;;;7.78;1.60;;;14.20;99.90;;;;;;5013331;28;20085;-82
2023/11/13 09:55:20;;;;;;;4.88;1.83;;;14.20;99.90;;;;;;5017288;28;20624;-83
2023/11/13 09:57:48;;;;;;;7.75;2.28;;;14.20;99.90;;;;;;5017364;28;20096;-83
2023/11/13 10:00:17;;;;;;;11.25;2.50;;;14.20;99.90;;;;;;5017974;28;20054;-83
2023/11/13 10:02:46;;;;;;;9.18;2.22;;;14.20;99.90;;;;;;5016686;28;20050;-82
2023/11/13 10:05:15;;;;;;;9.23;1.90;;;14.20;99.90;;;;;;5014716;28;20050;-82
2023/11/13 10:07:44;;;;;;;10.02;2.55;;;14.20;99.90;;;;;;5010093;28;20053;-83
2023/11/13 10:10:17;;;;;;;5.97;1.88;;;14.20;99.90;;;;;;5016500;28;20352;-83
2023/11/13 10:12:45;;;;;;;5.97;1.67;;;14.20;99.90;;;;;;5016257;28;20157;-82
2023/11/13 10:15:12;;;;;;;8.02;2.33;;;14.20;99.90;;;;;;5016880;28;20108;-81
2023/11/13 10:17:49;;;;;;;9.02;1.60;;;14.30;99.90;;;;;;5017772;28;20041;-84
2023/11/13 10:20:17;;;;;;;7.10;1.75;;;14.30;99.90;;;;;;5019713;28;20056;-82
2023/11/13 10:22:58;;;;;;;7.93;1.92;;;14.30;99.90;;;;;;5019584;28;20037;-82
2023/11/13 10:25:28;;;;;;;6.75;1.48;;;14.30;99.90;;;;;;5018075;28;20042;-84
2023/11/13 10:27:57;;;;;;;7.13;1.93;;;14.30;99.90;;;;;;5017642;28;20052;-81
2023/11/13 10:30:24;;;;;;;11.27;2.17;;;14.40;99.90;;;;;;5016882;28;20304;-83
2023/11/13 10:32:51;;;;;;;5.60;1.60;;;14.40;99.90;;;;;;5018903;28;20050;-81
2023/11/13 10:35:35;;;;;;;4.93;1.63;;;14.40;99.90;;;;;;5017384;28;20509;-83
2023/11/13 10:38:07;;;;;;;6.07;2.45;;;14.40;99.90;;;;;;5018159;28;20077;-82
2023/11/13 10:40:39;;;;;;;7.18;2.28;;;14.40;99.90;;;;;;5018473;28;20530;-83
2023/11/13 10:43:07;;;;;;;9.05;2.15;;;14.40;99.90;;;;;;5030385;28;20112;-83
2023/11/13 10:45:34;;;;;;;5.22;1.60;;;14.50;99.90;;;;;;5017657;28;20108;-82
2023/11/13 10:48:02;;;;;;;5.82;1.60;;;14.50;99.90;;;;;;5017695;28;20060;-83
2023/11/13 10:50:30;;;;;;;7.53;1.75;;;14.50;99.90;;;;;;5018050;28;20056;-81
2023/11/13 10:52:59;;;;;;;8.70;2.38;;;14.50;99.90;;;;;;5013865;28;20049;-82
2023/11/13 10:55:28;;;;;;;5.80;1.77;;;14.50;99.90;;;;;;5013321;28;20441;-81
2023/11/13 10:57:55;;;;;;;8.03;1.80;;;14.50;99.90;;;;;;5014540;28;20124;-82
2023/11/13 11:00:22;;;;;;;8.52;2.15;;;14.50;99.90;;;;;;5014972;28;20280;-82
2023/11/13 11:02:53;;;;;;;7.88;1.63;;;14.60;99.90;;;;;;5015864;28;20045;-82
2023/11/13 11:05:22;;;;;;;6.68;2.30;;;14.60;99.90;;;;;;5014752;28;20058;-83
2023/11/13 11:07:54;;;;;;;5.90;1.87;;;14.60;99.90;;;;;;5016054;28;20105;-82
2023/11/13 11:10:24;;;;;;;7.97;2.42;;;14.60;99.90;;;;;;5016791;28;20104;-83
2023/11/13 11:13:02;;;;;;;8.57;2.92;;;14.60;99.90;;;;;;5015508;28;20064;-83
2023/11/13 11:15:46;;;;;;;10.27;2.70;;;14.60;99.90;;;;;;5014381;28;20061;-82
2023/11/13 11:18:25;;;;;;;9.43;2.22;;;14.60;99.90;;;;;;5016276;28;20045;-81
2023/11/13 11:21:12;;;;;;;6.55;1.90;;;14.60;99.90;;;;;;5015852;28;20060;-84
2023/11/13 11:24:11;;;;;;;7.18;1.90;;;14.60;99.90;;;;;;5007041;28;20038;-81
2023/11/13 11:26:52;;;;;;;8.82;1.90;;;14.70;99.90;;;;;;5013075;28;20050;-81
2023/11/13 11:29:37;;;;;;;5.25;1.58;;;14.70;99.90;;;;;;5017281;28;20053;-82
2023/11/13 11:32:13;;;;;;;6.00;1.70;;;14.70;99.90;;;;;;5014237;28;20052;-82
2023/11/13 11:34:44;;;;;;;6.78;1.60;;;14.70;99.90;;;;;;5015443;28;20506;-80
2023/11/13 11:37:13;;;;;;;11.52;2.55;;;14.70;99.90;;;;;;5011526;28;20072;-79
2023/11/13 11:39:51;;;;;;;5.32;1.92;;;14.80;99.90;;;;;;5012598;28;20061;-81
2023/11/13 11:42:24;;;;;;;7.15;2.10;;;14.80;99.90;;;;;;5014674;28;20057;-81
2023/11/13 11:44:54;;;;;;;7.28;2.17;;;14.80;99.90;;;;;;5016565;28;20049;-81
2023/11/13 11:47:25;;;;;;;4.90;1.40;;;14.90;99.90;;;;;;5019639;28;20045;-78
2023/11/13 11:49:58;;;;;;;6.60;1.73;;;14.90;99.90;;;;;;5014593;28;20133;-79
2023/11/13 11:52:51;;;;;;;4.97;1.55;;;14.90;99.90;;;;;;5013945;28;20046;-82
2023/11/13 11:55:21;;;;;;;7.30;1.48;;;14.90;99.90;;;;;;5009844;28;20077;-81
2023/11/13 11:57:49;;;;;;;6.47;1.93;;;14.90;99.90;;;;;;5014529;28;20115;-82
2023/11/13 12:00:20;;;;;;;7.40;1.73;;;14.90;99.90;;;;;;5018193;28;20449;-81
2023/11/13 12:02:51;;;;;;;11.43;1.95;;;14.90;99.90;;;;;;5019745;28;20088;-82
2023/11/13 12:05:19;;;;;;;6.63;1.40;;;14.90;99.90;;;;;;5014764;28;20046;-82
2023/11/13 12:07:48;;;;;;;5.35;1.65;;;14.80;99.90;;;;;;5019147;28;20076;-82
2023/11/13 12:10:18;;;;;;;4.30;1.40;;;14.80;99.90;;;;;;5019407;28;20054;-82
2023/11/13 12:12:46;;;;;;;6.45;2.13;;;14.80;99.90;;;;;;5016254;28;20330;-83
2023/11/13 12:15:14;;;;;;;9.65;1.60;;;14.80;99.90;;;;;;5034695;28;20050;-81
2023/11/13 12:17:43;;;;;;;7.32;1.60;;;14.80;99.90;;;;;;5019841;28;20046;-83
2023/11/13 12:20:11;;;;;;;4.18;1.85;;;14.70;99.90;;;;;;5020125;28;20131;-82
2023/11/13 12:22:47;;;;;;;6.32;1.90;;;14.70;99.90;;;;;;5016217;28;20042;-82
2023/11/13 12:25:15;;;;;;;6.60;2.42;;;14.70;99.90;;;;;;5018455;28;20049;-82
2023/11/13 12:27:43;;;;;;;9.50;2.15;;;14.70;99.90;;;;;;5014152;28;20065;-82
2023/11/13 12:30:22;;;;;;;4.03;1.27;;;14.70;99.90;;;;;;5020948;28;20112;-82
2023/11/13 12:32:52;;;;;;;4.38;1.30;;;14.70;99.90;;;;;;5014473;28;20048;-82
2023/11/13 12:35:22;;;;;;;6.68;1.50;;;14.70;99.90;;;;;;5019415;28;20057;-82
2023/11/13 12:37:50;;;;;;;11.57;2.28;;;14.70;99.90;;;;;;5018689;28;20481;-82
2023/11/13 12:40:19;;;;;;;3.50;1.25;;;14.70;99.90;;;;;;5021290;28;20080;-83
2023/11/13 12:42:47;;;;;;;5.18;1.30;;;14.70;99.90;;;;;;5021373;28;20436;-83
2023/11/13 12:45:17;;;;;;;5.88;1.63;;;14.70;99.90;;;;;;5035983;28;20057;-82
2023/11/13 12:47:55;;;;;;;2.78;1.10;;;14.70;99.90;;;;;;5021576;28;20460;-82
2023/11/13 12:50:26;;;;;;;6.70;1.92;;;14.70;99.90;;;;;;5019474;28;20057;-83